Time;durP1;ratioP1;P1;durP2;ratioP2;P2;SDS_P1;SDS_P2;PMS_P1;PMS_P2;Temp;Humidity;BMP_temperature;BMP_pressure;BME280_temperature;BME280_humidity;BME280_pressure;Samples;Min_cycle;Max_cycle;Signal;HPM_P1;HPM_P2
2023/03/10 00:02:03;;;;;;;9.30;3.40;;;;;;;;;;5070532;28;20029;-72
2023/03/10 00:04:29;;;;;;;11.25;3.42;;;;;;;;;;5070678;28;20118;-71
2023/03/10 00:06:54;;;;;;;12.55;3.20;;;;;;;;;;5070326;28;20037;-72
2023/03/10 00:09:20;;;;;;;8.48;2.50;;;;;;;;;;5076936;28;20500;-72
2023/03/10 00:11:47;;;;;;;9.70;3.28;;;;;;;;;;5090827;28;20662;-72
2023/03/10 00:14:13;;;;;;;15.02;3.90;;;;;;;;;;5090450;28;20134;-72
2023/03/10 00:16:39;;;;;;;12.68;3.40;;;;;;;;;;5090596;28;20051;-72
2023/03/10 00:19:04;;;;;;;11.32;3.50;;;;;;;;;;5089358;28;20044;-72
2023/03/10 00:21:31;;;;;;;11.18;3.65;;;;;;;;;;5090051;28;20036;-72
2023/03/10 00:23:57;;;;;;;12.88;3.30;;;;;;;;;;5089162;28;20085;-71
2023/03/10 00:26:26;;;;;;;9.07;2.60;;;;;;;;;;5090529;28;20109;-71
2023/03/10 00:28:52;;;;;;;8.50;2.78;;;;;;;;;;5091785;28;20028;-72
2023/03/10 00:31:24;;;;;;;7.15;2.53;;;;;;;;;;5090496;28;20032;-70
2023/03/10 00:33:51;;;;;;;12.82;2.63;;;;;;;;;;5090150;28;20031;-71
2023/03/10 00:36:22;;;;;;;9.55;2.75;;;;;;;;;;5090357;28;20020;-71
2023/03/10 00:38:49;;;;;;;7.13;2.33;;;;;;;;;;5090046;28;20020;-73
2023/03/10 00:41:17;;;;;;;9.15;2.80;;;;;;;;;;5090200;28;20035;-71
2023/03/10 00:43:43;;;;;;;12.35;3.10;;;;;;;;;;5089862;28;20031;-71
2023/03/10 00:46:09;;;;;;;8.35;2.50;;;;;;;;;;5090325;28;20024;-71
2023/03/10 00:48:35;;;;;;;7.55;2.75;;;;;;;;;;5089960;28;20111;-71
2023/03/10 00:51:02;;;;;;;9.30;2.58;;;;;;;;;;5090148;28;20217;-71
2023/03/10 00:53:28;;;;;;;9.27;2.53;;;;;;;;;;5089894;28;20475;-71
2023/03/10 00:56:14;;;;;;;8.45;2.40;;;;;;;;;;5089659;28;20045;-71
2023/03/10 00:58:39;;;;;;;6.38;2.10;;;;;;;;;;5089393;28;20039;-71
2023/03/10 01:01:13;;;;;;;9.80;2.50;;;;;;;;;;5090069;28;20036;-71
2023/03/10 01:03:38;;;;;;;9.90;2.10;;;;;;;;;;5089923;28;20023;-71
2023/03/10 01:06:04;;;;;;;7.50;2.33;;;;;;;;;;5089903;28;20604;-70
2023/03/10 01:08:29;;;;;;;11.18;3.25;;;;;;;;;;5082719;28;20576;-71
2023/03/10 01:10:55;;;;;;;10.73;2.75;;;;;;;;;;5069599;28;20035;-70
2023/03/10 01:13:20;;;;;;;7.88;2.90;;;;;;;;;;5069174;28;20041;-72
2023/03/10 01:15:49;;;;;;;9.18;2.75;;;;;;;;;;5069100;28;20018;-72
2023/03/10 01:18:16;;;;;;;9.35;2.53;;;;;;;;;;5069246;28;20025;-71
2023/03/10 01:20:42;;;;;;;7.68;2.17;;;;;;;;;;5069736;28;20504;-71
2023/03/10 01:23:19;;;;;;;6.97;2.10;;;;;;;;;;5069306;28;20078;-71
2023/03/10 01:25:45;;;;;;;10.50;2.58;;;;;;;;;;5069456;28;20056;-71
2023/03/10 01:28:11;;;;;;;6.95;2.10;;;;;;;;;;5069101;28;20060;-71
2023/03/10 01:30:37;;;;;;;8.38;1.98;;;;;;;;;;5068878;28;20102;-71
2023/03/10 01:33:02;;;;;;;6.38;1.70;;;;;;;;;;5068441;28;20056;-72
2023/03/10 01:35:29;;;;;;;10.68;2.17;;;;;;;;;;5069299;28;20052;-71
2023/03/10 01:37:54;;;;;;;5.10;1.90;;;;;;;;;;5069085;28;20516;-71
2023/03/10 01:40:20;;;;;;;10.05;2.78;;;;;;;;;;5051445;28;20120;-71
2023/03/10 01:42:45;;;;;;;6.68;1.90;;;;;;;;;;5069124;28;20038;-73
2023/03/10 01:45:14;;;;;;;4.40;1.75;;;;;;;;;;5072660;28;20040;-71
2023/03/10 01:47:40;;;;;;;4.05;1.50;;;;;;;;;;5071303;28;20038;-71
2023/03/10 01:50:12;;;;;;;6.70;1.60;;;;;;;;;;5069273;28;20029;-73
2023/03/10 01:52:40;;;;;;;9.00;1.75;;;;;;;;;;5069161;28;20040;-71
2023/03/10 01:55:18;;;;;;;8.25;2.40;;;;;;;;;;5068951;28;20476;-72
2023/03/10 01:57:51;;;;;;;7.07;1.60;;;;;;;;;;5069032;28;20370;-71
2023/03/10 02:00:18;;;;;;;6.88;1.60;;;;;;;;;;5068961;28;20504;-71
2023/03/10 02:03:17;;;;;;;6.82;1.90;;;;;;;;;;5068834;28;20040;-72
2023/03/10 02:05:55;;;;;;;6.03;1.80;;;;;;;;;;5068587;28;20048;-71
2023/03/10 02:08:28;;;;;;;7.75;2.60;;;;;;;;;;5068687;28;20057;-70
2023/03/10 02:10:54;;;;;;;9.07;2.25;;;;;;;;;;5069277;28;20481;-70
2023/03/10 02:13:19;;;;;;;7.07;1.88;;;;;;;;;;5068876;28;20029;-71
2023/03/10 02:15:45;;;;;;;7.05;1.67;;;;;;;;;;5068427;28;20031;-70
2023/03/10 02:18:12;;;;;;;5.88;1.92;;;;;;;;;;5068703;28;20031;-71
2023/03/10 02:20:56;;;;;;;7.63;2.10;;;;;;;;;;5068850;28;20021;-71
2023/03/10 02:23:33;;;;;;;9.30;2.42;;;;;;;;;;5068587;28;20438;-71
2023/03/10 02:26:08;;;;;;;7.47;2.10;;;;;;;;;;5068624;28;20027;-70
2023/03/10 02:28:33;;;;;;;10.32;2.20;;;;;;;;;;5068321;28;20036;-71
2023/03/10 02:31:00;;;;;;;9.13;2.33;;;;;;;;;;5068903;28;20025;-70
2023/03/10 02:33:27;;;;;;;6.25;2.20;;;;;;;;;;5068515;28;20029;-71
2023/03/10 02:35:53;;;;;;;7.65;2.55;;;;;;;;;;5068802;28;20039;-71
2023/03/10 02:38:18;;;;;;;7.35;2.10;;;;;;;;;;5068370;28;20107;-70
2023/03/10 02:40:47;;;;;;;3.80;1.42;;;;;;;;;;5068613;28;20523;-70
2023/03/10 02:43:12;;;;;;;5.30;1.55;;;;;;;;;;5069328;28;20025;-71
2023/03/10 02:45:41;;;;;;;7.50;1.23;;;;;;;;;;5071943;28;20082;-71
2023/03/10 02:48:12;;;;;;;8.18;1.60;;;;;;;;;;5071968;28;20028;-72
2023/03/10 02:50:40;;;;;;;6.03;1.38;;;;;;;;;;5072463;28;20021;-71
2023/03/10 02:53:21;;;;;;;8.18;1.45;;;;;;;;;;5072161;28;20141;-72
2023/03/10 02:55:46;;;;;;;;;;;;;;;;;;5072184;28;20083;-70
2023/03/10 02:58:14;;;;;;;8.48;1.40;;;;;;;;;;5071968;28;20013;-74
2023/03/10 03:00:42;;;;;;;5.90;1.25;;;;;;;;;;5053763;28;20012;-71
2023/03/10 03:03:08;;;;;;;7.72;1.23;;;;;;;;;;5071881;28;20060;-70
2023/03/10 03:05:34;;;;;;;6.88;1.38;;;;;;;;;;5071989;28;20108;-70
2023/03/10 03:07:59;;;;;;;7.13;1.20;;;;;;;;;;5071795;28;20120;-71
2023/03/10 03:10:24;;;;;;;6.88;1.45;;;;;;;;;;5071599;28;20055;-70
2023/03/10 03:12:50;;;;;;;9.50;1.15;;;;;;;;;;5071732;28;20103;-71
2023/03/10 03:15:18;;;;;;;6.90;1.23;;;;;;;;;;5071006;28;20078;-71
2023/03/10 03:17:44;;;;;;;6.03;1.27;;;;;;;;;;5071709;28;20025;-71
2023/03/10 03:20:12;;;;;;;9.48;1.42;;;;;;;;;;5071437;28;20032;-71
2023/03/10 03:22:38;;;;;;;6.88;1.25;;;;;;;;;;5071610;28;20028;-71
2023/03/10 03:25:04;;;;;;;6.45;1.30;;;;;;;;;;5053269;28;20029;-70
2023/03/10 03:27:30;;;;;;;8.55;1.38;;;;;;;;;;5071581;28;20046;-70
2023/03/10 03:29:57;;;;;;;5.03;1.17;;;;;;;;;;5071050;28;20023;-71
2023/03/10 03:32:23;;;;;;;7.00;1.52;;;;;;;;;;5071281;28;20019;-71
2023/03/10 03:34:48;;;;;;;6.55;1.20;;;;;;;;;;5052999;28;20104;-70
2023/03/10 03:37:13;;;;;;;8.25;1.20;;;;;;;;;;5072163;28;20027;-71
2023/03/10 03:39:39;;;;;;;7.55;1.30;;;;;;;;;;5071295;28;20052;-71
2023/03/10 03:42:04;;;;;;;6.15;1.20;;;;;;;;;;5071338;28;20024;-70
2023/03/10 03:44:30;;;;;;;8.88;1.27;;;;;;;;;;5070816;28;20103;-71
2023/03/10 03:46:55;;;;;;;8.95;1.40;;;;;;;;;;5070941;28;20017;-70
2023/03/10 03:49:20;;;;;;;9.38;1.15;;;;;;;;;;5070924;28;20020;-71
2023/03/10 03:51:46;;;;;;;14.40;2.10;;;;;;;;;;5070905;28;20522;-71
2023/03/10 03:54:11;;;;;;;10.32;1.77;;;;;;;;;;5070849;28;20028;-70
2023/03/10 03:56:37;;;;;;;7.28;1.33;;;;;;;;;;5070758;28;20078;-72
2023/03/10 03:59:02;;;;;;;6.88;1.45;;;;;;;;;;5070720;28;20028;-70
2023/03/10 04:01:27;;;;;;;11.75;1.35;;;;;;;;;;5072025;28;20094;-72
2023/03/10 04:03:53;;;;;;;9.95;1.40;;;;;;;;;;5071436;28;20025;-74
2023/03/10 04:06:18;;;;;;;7.53;1.33;;;;;;;;;;5070564;28;20419;-71
2023/03/10 04:08:44;;;;;;;8.13;1.42;;;;;;;;;;5070182;28;20076;-71
2023/03/10 04:11:09;;;;;;;12.82;1.60;;;;;;;;;;5070524;28;20050;-71
2023/03/10 04:13:36;;;;;;;9.68;1.52;;;;;;;;;;5070510;28;20056;-71
2023/03/10 04:16:01;;;;;;;7.68;1.48;;;;;;;;;;5070328;28;20035;-71
2023/03/10 04:18:27;;;;;;;8.98;1.50;;;;;;;;;;5070422;28;20024;-70
2023/03/10 04:20:53;;;;;;;9.82;1.60;;;;;;;;;;5070354;28;20025;-72
2023/03/10 04:23:18;;;;;;;8.23;1.80;;;;;;;;;;5070259;28;20028;-70
2023/03/10 04:25:44;;;;;;;6.63;1.27;;;;;;;;;;5069857;28;20025;-70
2023/03/10 04:28:10;;;;;;;6.00;1.33;;;;;;;;;;5070235;28;20028;-70
2023/03/10 04:30:36;;;;;;;8.95;1.70;;;;;;;;;;5069894;28;20082;-69
2023/03/10 04:33:01;;;;;;;8.23;1.30;;;;;;;;;;5070215;28;20024;-71
2023/03/10 04:35:28;;;;;;;8.90;1.33;;;;;;;;;;5069904;28;20053;-73
2023/03/10 04:37:53;;;;;;;8.80;1.73;;;;;;;;;;5070337;28;20029;-70
2023/03/10 04:40:19;;;;;;;8.07;1.45;;;;;;;;;;5069870;28;20032;-70
2023/03/10 04:42:44;;;;;;;9.15;1.50;;;;;;;;;;5070436;28;20028;-71
2023/03/10 04:45:10;;;;;;;7.40;1.50;;;;;;;;;;5058112;28;20029;-70
2023/03/10 04:47:37;;;;;;;8.73;1.42;;;;;;;;;;5069811;28;20027;-71
2023/03/10 04:50:04;;;;;;;8.63;1.35;;;;;;;;;;5069909;28;20056;-72
2023/03/10 04:52:29;;;;;;;8.32;1.48;;;;;;;;;;5070205;28;20016;-69
2023/03/10 04:54:55;;;;;;;8.02;1.40;;;;;;;;;;5069744;28;20507;-70
2023/03/10 04:57:20;;;;;;;6.28;1.20;;;;;;;;;;5069822;28;20101;-70
2023/03/10 04:59:45;;;;;;;9.52;1.60;;;;;;;;;;5069038;28;20116;-70
2023/03/10 05:02:11;;;;;;;5.72;1.67;;;;;;;;;;5069819;28;20095;-71
2023/03/10 05:04:38;;;;;;;9.25;1.58;;;;;;;;;;5069547;28;20021;-71
2023/03/10 05:07:03;;;;;;;8.32;1.42;;;;;;;;;;5069346;28;20025;-69
2023/03/10 05:09:29;;;;;;;12.00;1.77;;;;;;;;;;5069516;28;20040;-70
2023/03/10 05:11:54;;;;;;;12.43;1.80;;;;;;;;;;5069718;28;20028;-71
2023/03/10 05:14:19;;;;;;;9.00;1.90;;;;;;;;;;5069931;28;20016;-70
2023/03/10 05:16:47;;;;;;;13.82;2.00;;;;;;;;;;5069049;28;20027;-70
2023/03/10 05:19:12;;;;;;;9.90;2.22;;;;;;;;;;5069385;28;20026;-70
2023/03/10 05:21:38;;;;;;;11.82;1.90;;;;;;;;;;5069142;28;20024;-70
2023/03/10 05:24:03;;;;;;;9.75;1.63;;;;;;;;;;5069299;28;20020;-70
2023/03/10 05:26:29;;;;;;;19.30;2.22;;;;;;;;;;5069039;28;20024;-70
2023/03/10 05:28:55;;;;;;;18.40;2.63;;;;;;;;;;5069222;28;20554;-70
2023/03/10 05:31:24;;;;;;;17.63;2.13;;;;;;;;;;5087908;28;20024;-70
2023/03/10 05:33:51;;;;;;;20.70;2.88;;;;;;;;;;5089347;28;20025;-71
2023/03/10 05:36:16;;;;;;;19.10;2.60;;;;;;;;;;5089167;28;20361;-70
2023/03/10 05:38:42;;;;;;;14.93;2.25;;;;;;;;;;5089460;28;20555;-70
2023/03/10 05:41:09;;;;;;;19.27;2.50;;;;;;;;;;5089167;28;20036;-71
2023/03/10 05:43:35;;;;;;;16.65;2.13;;;;;;;;;;5089334;28;20070;-71
2023/03/10 05:46:00;;;;;;;20.92;2.90;;;;;;;;;;5089028;28;20056;-70
2023/03/10 05:48:26;;;;;;;22.55;2.72;;;;;;;;;;5089294;28;20476;-70
2023/03/10 05:51:10;;;;;;;13.45;2.55;;;;;;;;;;5089247;28;20074;-72
2023/03/10 05:53:36;;;;;;;17.58;2.38;;;;;;;;;;5089262;28;20428;-71
2023/03/10 05:56:11;;;;;;;24.33;3.03;;;;;;;;;;5088832;28;20065;-71
2023/03/10 05:58:37;;;;;;;18.38;2.67;;;;;;;;;;5088989;28;20484;-71
2023/03/10 06:01:02;;;;;;;20.98;2.75;;;;;;;;;;5088980;28;20058;-71
2023/03/10 06:03:28;;;;;;;15.25;2.42;;;;;;;;;;5089443;28;20476;-71
2023/03/10 06:05:55;;;;;;;23.42;3.03;;;;;;;;;;5089054;28;20480;-70
2023/03/10 06:08:22;;;;;;;18.13;2.90;;;;;;;;;;5088929;28;20058;-71
2023/03/10 06:10:47;;;;;;;18.65;2.85;;;;;;;;;;5088892;28;20024;-70
2023/03/10 06:13:13;;;;;;;20.83;2.92;;;;;;;;;;5089020;28;20541;-70
2023/03/10 06:15:38;;;;;;;18.17;2.67;;;;;;;;;;5088561;28;20028;-70
2023/03/10 06:18:03;;;;;;;23.85;2.95;;;;;;;;;;5089615;28;20025;-70
2023/03/10 06:20:29;;;;;;;14.95;2.90;;;;;;;;;;5093039;28;20373;-70
2023/03/10 06:22:54;;;;;;;20.23;2.80;;;;;;;;;;5093101;28;20020;-70
2023/03/10 06:25:20;;;;;;;19.05;2.88;;;;;;;;;;5092847;28;20419;-70
2023/03/10 06:27:46;;;;;;;22.95;3.20;;;;;;;;;;5092300;28;20040;-70
2023/03/10 06:30:12;;;;;;;19.50;3.10;;;;;;;;;;5075811;28;20028;-69
2023/03/10 06:32:37;;;;;;;25.20;4.28;;;;;;;;;;5097710;28;20220;-70
2023/03/10 06:35:03;;;;;;;22.38;2.60;;;;;;;;;;5098481;28;20024;-70
2023/03/10 06:37:28;;;;;;;19.65;3.13;;;;;;;;;;5092460;28;20616;-70
2023/03/10 06:39:54;;;;;;;18.88;3.28;;;;;;;;;;5092872;28;20038;-70
2023/03/10 06:42:19;;;;;;;20.42;3.00;;;;;;;;;;5092545;28;20048;-71
2023/03/10 06:44:44;;;;;;;18.50;3.28;;;;;;;;;;5092157;28;20103;-71
2023/03/10 06:47:10;;;;;;;23.38;3.08;;;;;;;;;;5092960;28;20081;-71
2023/03/10 06:49:35;;;;;;;20.73;2.78;;;;;;;;;;5095923;28;20020;-71
2023/03/10 06:52:01;;;;;;;19.90;2.97;;;;;;;;;;5076797;28;20642;-70
2023/03/10 06:54:26;;;;;;;22.63;3.20;;;;;;;;;;5092373;28;20600;-70
2023/03/10 06:56:52;;;;;;;25.63;3.25;;;;;;;;;;5102875;28;20361;-69
2023/03/10 06:59:18;;;;;;;17.88;2.50;;;;;;;;;;5100796;28;20040;-71
2023/03/10 07:01:43;;;;;;;17.63;2.80;;;;;;;;;;5101417;28;20054;-75
2023/03/10 07:04:10;;;;;;;17.23;2.67;;;;;;;;;;5103389;28;20222;-73
2023/03/10 07:06:36;;;;;;;19.25;2.80;;;;;;;;;;5100896;28;20040;-69
2023/03/10 07:09:02;;;;;;;17.25;3.00;;;;;;;;;;5093396;28;20704;-69
2023/03/10 07:11:27;;;;;;;20.15;3.08;;;;;;;;;;5091937;28;20024;-69
2023/03/10 07:13:53;;;;;;;14.57;2.20;;;;;;;;;;5091653;28;20023;-70
2023/03/10 07:16:19;;;;;;;15.50;2.53;;;;;;;;;;5091712;28;20032;-69
2023/03/10 07:18:45;;;;;;;17.45;2.28;;;;;;;;;;5073395;28;20085;-69
2023/03/10 07:21:14;;;;;;;13.75;2.47;;;;;;;;;;5094048;28;20032;-69
2023/03/10 07:23:39;;;;;;;25.67;2.67;;;;;;;;;;5081415;28;20381;-70
2023/03/10 07:26:07;;;;;;;15.98;2.38;;;;;;;;;;5076799;28;20077;-70
2023/03/10 07:28:34;;;;;;;16.52;2.63;;;;;;;;;;5094510;28;20042;-70
2023/03/10 07:31:08;;;;;;;18.55;2.50;;;;;;;;;;5083746;28;20066;-70
2023/03/10 07:33:34;;;;;;;19.20;2.97;;;;;;;;;;5071425;28;20075;-70
2023/03/10 07:36:04;;;;;;;15.75;2.95;;;;;;;;;;5074897;28;20036;-70
2023/03/10 07:38:30;;;;;;;18.75;3.42;;;;;;;;;;5073364;28;20028;-69
2023/03/10 07:40:55;;;;;;;18.25;2.90;;;;;;;;;;5100001;28;20050;-71
2023/03/10 07:43:20;;;;;;;16.15;2.45;;;;;;;;;;5101022;28;20016;-70
2023/03/10 07:45:46;;;;;;;19.05;3.00;;;;;;;;;;5092917;28;20036;-71
2023/03/10 07:48:12;;;;;;;16.73;2.75;;;;;;;;;;5099265;28;20091;-78
2023/03/10 07:50:37;;;;;;;17.55;2.70;;;;;;;;;;5102728;28;20081;-77
2023/03/10 07:53:03;;;;;;;21.35;3.13;;;;;;;;;;5083134;28;20024;-75
2023/03/10 07:55:28;;;;;;;18.75;2.75;;;;;;;;;;5109898;28;20592;-72
2023/03/10 07:57:55;;;;;;;17.88;3.08;;;;;;;;;;5091144;28;20471;-74
2023/03/10 08:00:21;;;;;;;21.25;3.72;;;;;;;;;;5110682;28;20088;-75
2023/03/10 08:02:46;;;;;;;17.33;2.45;;;;;;;;;;5109390;28;20027;-76
2023/03/10 08:05:13;;;;;;;26.85;3.28;;;;;;;;;;5111239;28;20368;-76
2023/03/10 08:07:39;;;;;;;16.25;2.70;;;;;;;;;;5111271;28;20032;-72
2023/03/10 08:10:05;;;;;;;20.17;3.20;;;;;;;;;;5111111;28;20050;-77
2023/03/10 08:12:30;;;;;;;19.38;2.83;;;;;;;;;;5111089;28;20043;-73
2023/03/10 08:14:56;;;;;;;19.20;3.45;;;;;;;;;;5110664;28;20020;-77
2023/03/10 08:17:23;;;;;;;22.33;3.40;;;;;;;;;;5110580;28;20023;-75
2023/03/10 08:19:48;;;;;;;20.42;2.88;;;;;;;;;;5111116;28;20023;-74
2023/03/10 08:22:15;;;;;;;25.70;3.47;;;;;;;;;;5092628;28;20031;-73
2023/03/10 08:24:40;;;;;;;24.88;2.90;;;;;;;;;;5098907;28;20072;-74
2023/03/10 08:27:06;;;;;;;27.63;3.00;;;;;;;;;;5062700;28;20031;-72
2023/03/10 08:29:31;;;;;;;22.13;3.08;;;;;;;;;;5078132;28;20043;-74
2023/03/10 08:31:57;;;;;;;21.27;3.30;;;;;;;;;;5090037;28;20024;-73
2023/03/10 08:34:22;;;;;;;20.13;3.22;;;;;;;;;;5086546;28;20030;-73
2023/03/10 08:36:48;;;;;;;17.80;2.97;;;;;;;;;;5081234;28;20028;-73
2023/03/10 08:39:13;;;;;;;18.27;2.90;;;;;;;;;;5081893;28;20020;-76
2023/03/10 08:41:43;;;;;;;25.67;3.55;;;;;;;;;;5081055;28;20020;-73
2023/03/10 08:44:13;;;;;;;22.35;2.72;;;;;;;;;;5071507;28;20048;-71
2023/03/10 08:46:39;;;;;;;27.65;3.22;;;;;;;;;;5053439;28;20487;-72
2023/03/10 08:49:05;;;;;;;24.02;2.75;;;;;;;;;;5080077;28;20029;-72
2023/03/10 08:51:30;;;;;;;21.85;3.85;;;;;;;;;;5078258;28;20084;-73
2023/03/10 08:53:56;;;;;;;20.70;3.20;;;;;;;;;;5081234;28;20216;-72
2023/03/10 08:56:22;;;;;;;16.60;2.45;;;;;;;;;;5080572;28;20093;-72
2023/03/10 08:58:48;;;;;;;20.45;3.08;;;;;;;;;;5080161;28;20032;-72
2023/03/10 09:01:15;;;;;;;19.05;3.30;;;;;;;;;;5075698;28;20401;-73
2023/03/10 09:03:42;;;;;;;22.27;2.70;;;;;;;;;;5070223;28;20032;-73
2023/03/10 09:06:08;;;;;;;17.38;2.80;;;;;;;;;;5074472;28;20039;-73
2023/03/10 09:08:34;;;;;;;23.98;2.92;;;;;;;;;;5085746;28;20047;-71
2023/03/10 09:10:59;;;;;;;17.88;2.83;;;;;;;;;;5095939;28;20024;-73
2023/03/10 09:13:25;;;;;;;19.83;2.78;;;;;;;;;;5097566;28;20247;-73
2023/03/10 09:15:51;;;;;;;20.30;3.80;;;;;;;;;;5098428;28;20111;-71
2023/03/10 09:18:17;;;;;;;19.50;2.90;;;;;;;;;;5097144;28;20527;-73
2023/03/10 09:20:43;;;;;;;20.40;2.67;;;;;;;;;;5099990;28;20028;-72
2023/03/10 09:23:14;;;;;;;21.17;3.10;;;;;;;;;;5101057;28;20031;-72
2023/03/10 09:25:40;;;;;;;13.88;2.40;;;;;;;;;;5098771;28;20047;-72
2023/03/10 09:28:07;;;;;;;17.80;2.97;;;;;;;;;;5086818;28;20069;-73
2023/03/10 09:30:36;;;;;;;22.05;3.78;;;;;;;;;;5086024;28;20027;-74
2023/03/10 09:33:06;;;;;;;19.35;3.05;;;;;;;;;;5084124;28;20073;-76
2023/03/10 09:35:32;;;;;;;22.63;3.00;;;;;;;;;;5083100;28;20036;-73
2023/03/10 09:37:57;;;;;;;23.15;3.47;;;;;;;;;;5089379;28;20257;-75
2023/03/10 09:40:23;;;;;;;21.98;2.90;;;;;;;;;;5072272;28;20025;-73
2023/03/10 09:43:05;;;;;;;14.18;2.63;;;;;;;;;;5079133;28;20024;-72
2023/03/10 09:45:38;;;;;;;21.80;3.03;;;;;;;;;;5079986;28;20028;-71
2023/03/10 09:48:06;;;;;;;16.65;2.70;;;;;;;;;;5098551;28;20069;-72
2023/03/10 09:50:47;;;;;;;22.95;2.97;;;;;;;;;;5100839;28;20055;-71
2023/03/10 09:53:12;;;;;;;;;;;;;;;;;;5084041;28;20258;-72
2023/03/10 12:59:55;;;;;;;12.40;1.90;;;;;;;;;;6036939;22;1278780;-73
2023/03/10 13:03:08;;;;;;;14.35;2.30;;;;;;;;;;6131473;23;20044;-73
2023/03/10 13:05:38;;;;;;;10.23;2.35;;;;;;;;;;5985293;24;20019;-72
2023/03/10 13:08:23;;;;;;;16.98;2.70;;;;;;;;;;5977502;24;20068;-73
2023/03/10 13:10:57;;;;;;;14.88;2.80;;;;;;;;;;6078104;23;20015;-71
2023/03/10 13:13:29;;;;;;;16.35;2.65;;;;;;;;;;6122983;23;20002;-72
2023/03/10 13:15:59;;;;;;;14.10;2.35;;;;;;;;;;6126999;23;19994;-73
2023/03/10 13:18:25;;;;;;;;;;;;;;;;;;6134861;23;20052;-72
2023/03/10 13:20:50;;;;;;;16.42;2.40;;;;;;;;;;6133018;23;19957;-73
2023/03/10 13:23:23;;;;;;;16.38;2.72;;;;;;;;;;6134216;23;20002;-73
2023/03/10 13:26:03;;;;;;;13.00;2.10;;;;;;;;;;6134004;23;19998;-72
2023/03/10 13:28:30;;;;;;;12.27;2.30;;;;;;;;;;6133453;23;20005;-72
2023/03/10 13:31:13;;;;;;;16.38;1.90;;;;;;;;;;6131490;23;20072;-70
2023/03/10 13:33:39;;;;;;;15.75;2.65;;;;;;;;;;6130386;23;20002;-72
2023/03/10 13:36:20;;;;;;;13.75;2.10;;;;;;;;;;6133336;23;20285;-71
2023/03/10 13:38:45;;;;;;;11.55;1.83;;;;;;;;;;6129303;23;20006;-71
2023/03/10 13:41:11;;;;;;;14.65;2.10;;;;;;;;;;6125414;23;20004;-71
2023/03/10 13:43:41;;;;;;;13.77;2.03;;;;;;;;;;6128129;23;20069;-71
2023/03/10 13:46:16;;;;;;;15.98;2.40;;;;;;;;;;6128996;23;20053;-71
2023/03/10 13:48:42;;;;;;;12.52;2.05;;;;;;;;;;6128612;23;20010;-71
2023/03/10 13:51:30;;;;;;;13.40;1.98;;;;;;;;;;6123978;23;20010;-71
2023/03/10 13:54:10;;;;;;;10.52;2.28;;;;;;;;;;6127830;23;20002;-72
2023/03/10 13:56:39;;;;;;;14.70;1.98;;;;;;;;;;6131108;23;20057;-74
2023/03/10 13:59:11;;;;;;;12.35;2.15;;;;;;;;;;6133163;23;20069;-80
2023/03/10 14:01:42;;;;;;;13.82;2.00;;;;;;;;;;6133371;23;20068;-74
2023/03/10 14:04:15;;;;;;;15.30;1.88;;;;;;;;;;6131497;23;20277;-73
2023/03/10 14:06:41;;;;;;;13.25;2.03;;;;;;;;;;6134179;23;20002;-74
2023/03/10 14:09:20;;;;;;;10.73;1.95;;;;;;;;;;6131946;23;20017;-73
2023/03/10 14:11:47;;;;;;;9.63;1.83;;;;;;;;;;6125775;23;19994;-75
2023/03/10 14:14:26;;;;;;;9.85;1.70;;;;;;;;;;6128204;23;20107;-73
2023/03/10 14:16:54;;;;;;;12.77;1.90;;;;;;;;;;6123125;23;20033;-76
2023/03/10 14:19:42;;;;;;;8.23;1.55;;;;;;;;;;6123211;23;20012;-73
2023/03/10 14:22:35;;;;;;;9.38;2.10;;;;;;;;;;6122487;23;20009;-70
2023/03/10 14:25:04;;;;;;;6.22;1.65;;;;;;;;;;6120979;23;20002;-71
2023/03/10 14:27:33;;;;;;;10.57;1.50;;;;;;;;;;6120634;23;20012;-76
2023/03/10 14:30:01;;;;;;;9.65;1.45;;;;;;;;;;6094966;23;20006;-73
2023/03/10 14:32:26;;;;;;;9.20;1.30;;;;;;;;;;6119541;23;20017;-74
2023/03/10 14:34:52;;;;;;;9.63;1.50;;;;;;;;;;6121298;23;20006;-76
2023/03/10 14:37:18;;;;;;;9.18;1.50;;;;;;;;;;6122441;23;20002;-76
2023/03/10 14:39:43;;;;;;;7.03;1.70;;;;;;;;;;6125689;23;20006;-77
2023/03/10 14:42:28;;;;;;;15.18;2.03;;;;;;;;;;6122653;23;20014;-74
2023/03/10 14:44:54;;;;;;;6.75;1.20;;;;;;;;;;6122996;23;20002;-75
2023/03/10 14:47:19;;;;;;;12.13;1.90;;;;;;;;;;6122647;23;20017;-72
2023/03/10 14:49:45;;;;;;;9.35;1.65;;;;;;;;;;6123460;23;20013;-72
2023/03/10 14:52:14;;;;;;;9.00;1.55;;;;;;;;;;6123141;23;20002;-73
2023/03/10 14:54:39;;;;;;;9.82;1.65;;;;;;;;;;6122870;23;20006;-73
2023/03/10 14:57:05;;;;;;;9.43;1.60;;;;;;;;;;6122943;23;20096;-69
2023/03/10 14:59:30;;;;;;;9.65;1.50;;;;;;;;;;6126827;23;20010;-73
2023/03/10 15:02:01;;;;;;;12.27;1.73;;;;;;;;;;6124517;23;20438;-75
2023/03/10 15:04:27;;;;;;;9.63;1.42;;;;;;;;;;6122428;23;20006;-77
2023/03/10 15:06:52;;;;;;;7.95;1.50;;;;;;;;;;6122954;23;20561;-73
2023/03/10 15:09:18;;;;;;;12.88;1.88;;;;;;;;;;6122774;23;20002;-78
2023/03/10 15:11:44;;;;;;;10.02;1.75;;;;;;;;;;6122872;23;20002;-76
2023/03/10 15:14:16;;;;;;;7.68;1.50;;;;;;;;;;6122590;23;20343;-70
2023/03/10 15:16:41;;;;;;;7.20;1.60;;;;;;;;;;6122515;23;20032;-69
2023/03/10 15:19:15;;;;;;;6.30;1.25;;;;;;;;;;6122339;23;20010;-70
2023/03/10 15:21:40;;;;;;;6.07;1.40;;;;;;;;;;6123157;23;20002;-74
2023/03/10 15:24:07;;;;;;;6.45;1.30;;;;;;;;;;6123978;23;20089;-77
2023/03/10 15:26:32;;;;;;;8.80;1.50;;;;;;;;;;6123907;23;20438;-77
2023/03/10 15:28:58;;;;;;;6.13;1.27;;;;;;;;;;6122701;23;20077;-79
2023/03/10 15:31:23;;;;;;;7.45;1.40;;;;;;;;;;6122742;23;20537;-79
2023/03/10 15:33:48;;;;;;;6.38;1.40;;;;;;;;;;6122341;23;20002;-71
2023/03/10 15:36:14;;;;;;;7.60;1.48;;;;;;;;;;6122368;23;20006;-73
2023/03/10 15:38:39;;;;;;;8.13;1.30;;;;;;;;;;6122456;23;20053;-73
2023/03/10 15:41:04;;;;;;;8.30;1.30;;;;;;;;;;6097736;23;20080;-78
2023/03/10 15:43:30;;;;;;;5.47;1.10;;;;;;;;;;6122204;23;20007;-74
2023/03/10 15:45:55;;;;;;;6.38;1.33;;;;;;;;;;6123226;23;19998;-75
2023/03/10 15:48:20;;;;;;;8.02;1.40;;;;;;;;;;6122411;23;20006;-77
2023/03/10 15:50:46;;;;;;;6.07;1.52;;;;;;;;;;6122567;23;19998;-78
2023/03/10 15:53:12;;;;;;;7.63;1.40;;;;;;;;;;6122708;23;20085;-76
2023/03/10 15:55:42;;;;;;;6.05;1.40;;;;;;;;;;6122204;23;20010;-74
2023/03/10 15:58:09;;;;;;;6.97;1.65;;;;;;;;;;6121903;23;20105;-75
2023/03/10 16:00:35;;;;;;;7.13;1.65;;;;;;;;;;6125892;23;20010;-73
2023/03/10 16:03:00;;;;;;;7.78;1.30;;;;;;;;;;6131842;23;20056;-71
2023/03/10 16:05:26;;;;;;;7.82;2.53;;;;;;;;;;6125378;23;20002;-73
2023/03/10 16:07:51;;;;;;;6.78;1.35;;;;;;;;;;6122300;23;20040;-70
2023/03/10 16:10:19;;;;;;;9.52;2.00;;;;;;;;;;6122117;23;20009;-73
2023/03/10 16:12:45;;;;;;;7.00;1.42;;;;;;;;;;6122174;23;20006;-75
2023/03/10 16:15:11;;;;;;;9.38;1.75;;;;;;;;;;6123185;23;20002;-74
2023/03/10 16:17:36;;;;;;;7.57;1.60;;;;;;;;;;6123827;23;20084;-70
2023/03/10 16:20:07;;;;;;;8.48;2.20;;;;;;;;;;6124525;23;20045;-71
2023/03/10 16:22:36;;;;;;;8.02;2.20;;;;;;;;;;6126304;23;20339;-69
2023/03/10 16:25:01;;;;;;;13.60;2.17;;;;;;;;;;6124740;23;20014;-72
2023/03/10 16:27:26;;;;;;;7.30;1.70;;;;;;;;;;6123929;23;20002;-71
2023/03/10 16:29:52;;;;;;;9.18;1.92;;;;;;;;;;6097985;23;20475;-76
2023/03/10 16:32:18;;;;;;;9.88;1.90;;;;;;;;;;6123944;23;20081;-71
2023/03/10 16:34:43;;;;;;;10.60;2.15;;;;;;;;;;6123725;23;20006;-71
2023/03/10 16:37:09;;;;;;;13.50;2.35;;;;;;;;;;6123919;23;20085;-70
2023/03/10 16:39:35;;;;;;;12.27;2.25;;;;;;;;;;6123998;23;20013;-71
2023/03/10 16:42:01;;;;;;;12.63;2.00;;;;;;;;;;6123857;23;20005;-69
2023/03/10 16:44:26;;;;;;;13.63;2.10;;;;;;;;;;6123943;23;20042;-73
2023/03/10 16:46:51;;;;;;;11.27;2.67;;;;;;;;;;6123628;23;20342;-71
2023/03/10 16:49:17;;;;;;;10.45;2.20;;;;;;;;;;6123612;23;20068;-69
2023/03/10 16:51:44;;;;;;;13.75;2.38;;;;;;;;;;6123742;23;20013;-71
2023/03/10 16:54:15;;;;;;;13.13;2.13;;;;;;;;;;6123958;23;20081;-70
2023/03/10 16:56:44;;;;;;;14.43;2.55;;;;;;;;;;6123780;23;20009;-73
2023/03/10 16:59:14;;;;;;;9.55;1.98;;;;;;;;;;6123568;23;20053;-73
2023/03/10 17:01:39;;;;;;;9.23;1.92;;;;;;;;;;6132262;23;20017;-70
2023/03/10 17:04:05;;;;;;;13.70;2.67;;;;;;;;;;6125835;23;20382;-70
2023/03/10 17:06:31;;;;;;;12.95;2.25;;;;;;;;;;6123635;23;20001;-72
2023/03/10 17:08:58;;;;;;;9.48;2.05;;;;;;;;;;6123671;23;20013;-73
2023/03/10 17:11:39;;;;;;;8.70;2.13;;;;;;;;;;6123924;23;20613;-70
2023/03/10 17:14:09;;;;;;;12.57;3.25;;;;;;;;;;6123787;23;20033;-76
2023/03/10 17:16:35;;;;;;;13.88;2.95;;;;;;;;;;6123703;23;20129;-70
2023/03/10 17:19:10;;;;;;;12.23;2.45;;;;;;;;;;6123524;23;20010;-70
2023/03/10 17:21:42;;;;;;;11.27;2.38;;;;;;;;;;6098373;23;20053;-76
2023/03/10 17:24:09;;;;;;;14.13;2.47;;;;;;;;;;6123714;23;20008;-71
2023/03/10 17:26:35;;;;;;;9.05;2.20;;;;;;;;;;6123813;23;20041;-71
2023/03/10 17:29:00;;;;;;;13.93;2.55;;;;;;;;;;6123405;23;20326;-70
2023/03/10 17:31:28;;;;;;;15.88;2.45;;;;;;;;;;6123652;23;20012;-71
2023/03/10 17:33:56;;;;;;;12.60;2.47;;;;;;;;;;6123582;23;20002;-71
2023/03/10 17:36:22;;;;;;;11.82;2.72;;;;;;;;;;6123510;23;20011;-72
2023/03/10 17:38:51;;;;;;;14.98;3.20;;;;;;;;;;6123431;23;20010;-72
2023/03/10 17:41:17;;;;;;;14.48;2.53;;;;;;;;;;6123160;23;20006;-70
2023/03/10 17:43:42;;;;;;;12.00;2.95;;;;;;;;;;6123190;23;20040;-70